El Paso, TX (88528)

7:31 PM MDT on September 01, 2015 (GMT -0600)
SanClemente Estates | | Change Station
CLOSE
Current Station
Personal Weather Station
Location: EL PASO, TX
Elevation: 4606 ft
Nearby Weather Stations

Elev 4606 ft 31.82 °N, 106.50 °W | Updated 8 seconds ago

Mostly Cloudy
Mostly Cloudy
85.8 °F
Feels Like 83 °F
N
0.9
Wind Variable Wind from WNW
Gusts 0.0 mph

Today
High -- | Low -- °F
--% Chance of Precip.
Yesterday
High -- | Low -- °F
Precip. -- in
6:41 AM 7:29 PM
Waning Gibbous, 85% visible
Pressure 29.75 in
Visibility 10.0 miles
Clouds Few 12000 ft
Mostly Cloudy 25000 ft
Heat Index 83 °F
Dew Point 39 °F
Humidity 19%
Rainfall 0.00 in
Snow Depth Not available.
UV 0 out of 12
Pollen 9.30 out of 12
Air Quality Not available.
Flu Activity Not available.
METAR KELP 020051Z 19003KT 10SM FEW120 BKN250 34/04 A2998 RMK AO2 SLP074 TCU DSNT SE T03440044
Pressure 29.75 in
Visibility 10.0 miles
Clouds Few 12000 ft
Mostly Cloudy 25000 ft
Heat Index 83 °F
Dew Point 39 °F
Humidity 19%
Rainfall 0.00 in
Snow Depth Not available.
UV 0 out of 12
Pollen 9.30 out of 12
Air Quality Not available.
Flu Activity Not available.
METAR KELP 020051Z 19003KT 10SM FEW120 BKN250 34/04 A2998 RMK AO2 SLP074 TCU DSNT SE T03440044

10-Day Weather Forecast

×

Almanac

Astronomy

Sep. 01, 2015 Rise Set
Actual Time
Civil Twilight
Nautical Twilight
Astronomical Twilight
Moon
Length of Visible Light
Length of Day
Tomorrow will be .
, % of the Moon is Illuminated

Today's Extremes

State Highs State Lows

Community

WunderPhotos

Upload Photos

1,851,672 photos uploaded!

WunderBlogs® & News

Nearby

Air Quality

  Air Quality AQ Index Pollutant
Not available.

Snow Depth

Station Depth Elevation

Earthquake Activity

City Distance Mag. Time & Date
Minimum magnitude displayed is 2.5.

Coastal Water Temperatures

Place Temperature

Stations

Nearby Weather Stations

Station Location Temp. Windchill Dew Point Humidity Wind Precip. Elev Updated Type